Terminal Aerodrome Forecast
Issued by NWS Wilmington, OH

Current Version | Previous Version | Graphics & Text | Print | Product List | Glossary On
Versions: 1 2 3 4 5 6 7 8 9 10 11 12 13 14 15 16 17 18 19 20
000
FTUS41 KILN 240545
TAFILN
TAF
KILN 240545Z 2406/2506 26005KT P6SM FEW120
     FM240900 26004KT 4SM BR SCT004
     FM241200 31010KT P6SM SCT025
     FM250000 36007KT P6SM FEW025=

USA.gov is the U.S. government's official web portal to all federal, state and local government web resources and services.